Time;durP1;ratioP1;P1;durP2;ratioP2;P2;SDS_P1;SDS_P2;PMS_P1;PMS_P2;Temp;Humidity;BMP_temperature;BMP_pressure;BME280_temperature;BME280_humidity;BME280_pressure;Samples;Min_cycle;Max_cycle;Signal;HPM_P1;HPM_P2
2022/03/25 00:00:12;;;;;;;20.85;18.63;;;13.10;99.90;;;;;;1026651;28;20772;-62
2022/03/25 00:00:44;;;;;;;22.33;17.58;;;13.10;99.90;;;;;;1026199;28;20090;-62
2022/03/25 00:01:15;;;;;;;21.73;18.30;;;13.10;99.90;;;;;;1018827;29;20741;-62
2022/03/25 00:01:45;;;;;;;19.70;17.40;;;13.10;99.90;;;;;;1018875;29;20051;-62
2022/03/25 00:02:16;;;;;;;21.73;17.83;;;13.10;99.90;;;;;;1020942;29;20016;-62
2022/03/25 00:02:46;;;;;;;19.80;17.70;;;13.10;99.90;;;;;;1023119;28;20023;-63
2022/03/25 00:03:17;;;;;;;22.03;17.53;;;13.10;99.90;;;;;;1023129;28;20016;-64
2022/03/25 00:03:48;;;;;;;22.90;18.13;;;13.10;99.90;;;;;;1023045;28;20030;-62
2022/03/25 00:04:19;;;;;;;20.43;18.33;;;13.10;99.90;;;;;;1022981;28;20031;-62
2022/03/25 00:04:49;;;;;;;23.83;19.47;;;13.10;99.90;;;;;;1023008;29;20309;-62
2022/03/25 00:05:20;;;;;;;20.17;16.67;;;13.10;99.90;;;;;;1022885;29;20011;-61
2022/03/25 00:05:51;;;;;;;21.65;19.10;;;13.10;99.90;;;;;;1023237;29;20039;-63
2022/03/25 00:06:22;;;;;;;20.17;18.07;;;13.00;99.90;;;;;;1022961;29;20730;-62
2022/03/25 00:06:52;;;;;;;21.83;19.58;;;13.10;99.90;;;;;;1022675;29;20044;-64
2022/03/25 00:07:23;;;;;;;23.50;18.30;;;13.10;99.90;;;;;;1022822;29;20392;-63
2022/03/25 00:07:53;;;;;;;20.83;18.73;;;13.00;99.90;;;;;;1022844;29;20490;-60
2022/03/25 00:08:24;;;;;;;21.33;19.00;;;13.00;99.90;;;;;;1022785;29;20379;-60
2022/03/25 00:08:54;;;;;;;22.10;18.50;;;13.00;99.90;;;;;;1023075;29;20086;-61
2022/03/25 00:09:25;;;;;;;20.33;18.20;;;13.00;99.90;;;;;;1023197;29;20019;-60
2022/03/25 00:09:55;;;;;;;20.90;18.63;;;13.00;99.90;;;;;;1022945;29;20031;-62
2022/03/25 00:10:26;;;;;;;23.63;17.93;;;13.00;99.90;;;;;;1023015;29;20019;-62
2022/03/25 00:10:57;;;;;;;23.40;17.97;;;13.00;99.90;;;;;;1023145;29;20094;-62
2022/03/25 00:11:27;;;;;;;21.60;17.73;;;13.00;99.90;;;;;;1022986;29;20686;-62
2022/03/25 00:11:58;;;;;;;18.53;16.30;;;13.00;99.90;;;;;;1022830;29;20098;-62
2022/03/25 00:12:28;;;;;;;21.47;19.00;;;13.00;99.90;;;;;;1022956;29;20098;-62
2022/03/25 00:12:59;;;;;;;21.93;17.87;;;13.00;99.90;;;;;;1023070;29;20019;-61
2022/03/25 00:13:29;;;;;;;21.20;18.93;;;13.00;99.90;;;;;;1022928;29;20019;-61
2022/03/25 00:14:00;;;;;;;21.70;19.40;;;13.00;99.90;;;;;;1022938;29;20023;-62
2022/03/25 00:14:31;;;;;;;22.17;19.93;;;13.00;99.90;;;;;;1023016;28;20106;-62
2022/03/25 00:15:01;;;;;;;24.33;19.27;;;13.00;99.90;;;;;;1022944;29;20015;-63
2022/03/25 00:15:32;;;;;;;23.40;19.70;;;13.00;99.90;;;;;;1023130;29;20187;-62
2022/03/25 00:16:07;;;;;;;21.63;18.27;;;13.00;99.90;;;;;;1023208;29;20753;-61
2022/03/25 00:16:37;;;;;;;21.73;18.38;;;12.90;99.90;;;;;;1023036;28;20035;-63
2022/03/25 00:17:08;;;;;;;20.90;17.87;;;12.90;99.90;;;;;;1022988;29;20011;-61
2022/03/25 00:17:38;;;;;;;22.23;19.90;;;12.90;99.90;;;;;;1022971;29;20015;-62
2022/03/25 00:18:09;;;;;;;25.40;18.57;;;12.90;99.90;;;;;;1023076;29;20011;-61
2022/03/25 00:18:39;;;;;;;20.83;17.67;;;12.90;99.90;;;;;;1022971;29;20663;-60
2022/03/25 00:19:10;;;;;;;20.97;18.27;;;12.90;99.90;;;;;;1023016;29;20442;-61
2022/03/25 00:19:40;;;;;;;21.63;18.00;;;12.90;99.90;;;;;;1022558;29;20118;-61
2022/03/25 00:20:11;;;;;;;19.30;16.90;;;12.90;99.90;;;;;;1018757;29;20008;-61
2022/03/25 00:20:42;;;;;;;21.07;18.00;;;12.90;99.90;;;;;;1018531;29;20015;-61
2022/03/25 00:21:12;;;;;;;22.17;19.13;;;12.90;99.90;;;;;;1018818;29;20019;-60
2022/03/25 00:21:43;;;;;;;21.53;18.40;;;12.90;99.90;;;;;;1022797;29;20482;-61
2022/03/25 00:22:13;;;;;;;22.17;19.77;;;12.90;99.90;;;;;;1022547;29;20482;-63
2022/03/25 00:22:44;;;;;;;21.13;18.93;;;12.90;99.90;;;;;;1018535;29;20114;-61
2022/03/25 00:23:15;;;;;;;18.87;16.87;;;12.80;99.90;;;;;;1018747;29;20706;-62
2022/03/25 00:23:46;;;;;;;22.33;17.92;;;12.90;99.90;;;;;;1019003;29;20020;-62
2022/03/25 00:24:16;;;;;;;20.77;16.83;;;12.90;99.90;;;;;;1022363;29;20011;-63
2022/03/25 00:24:47;;;;;;;23.03;18.83;;;12.90;99.90;;;;;;1023021;29;20635;-60
2022/03/25 00:25:17;;;;;;;20.83;18.60;;;12.90;99.90;;;;;;1022545;29;20612;-61
2022/03/25 00:25:48;;;;;;;21.73;19.43;;;12.80;99.90;;;;;;1022728;29;20038;-61
2022/03/25 00:26:18;;;;;;;21.03;18.63;;;12.90;99.90;;;;;;1022543;28;20047;-60
2022/03/25 00:26:49;;;;;;;21.03;18.90;;;12.90;99.90;;;;;;1022073;29;20766;-62
2022/03/25 00:27:19;;;;;;;22.37;17.77;;;12.90;99.90;;;;;;1022743;29;20020;-60
2022/03/25 00:27:50;;;;;;;21.83;19.03;;;12.90;99.90;;;;;;1022678;29;20098;-60
2022/03/25 00:28:20;;;;;;;20.80;18.63;;;12.90;99.90;;;;;;1022566;29;20019;-61
2022/03/25 00:28:51;;;;;;;20.63;18.43;;;12.90;99.90;;;;;;1022671;29;20027;-60
2022/03/25 00:29:21;;;;;;;21.43;18.87;;;12.90;99.90;;;;;;1022729;29;20019;-61
2022/03/25 00:29:52;;;;;;;22.43;19.23;;;12.80;99.90;;;;;;1023051;28;20058;-61
2022/03/25 00:30:22;;;;;;;23.13;20.83;;;12.90;99.90;;;;;;1022863;28;20031;-60
2022/03/25 00:30:53;;;;;;;22.17;18.00;;;12.80;99.90;;;;;;1021719;28;20634;-61
2022/03/25 00:31:24;;;;;;;23.07;18.63;;;12.80;99.90;;;;;;1022915;29;20031;-61
2022/03/25 00:31:54;;;;;;;20.57;18.13;;;12.80;99.90;;;;;;1022810;29;20023;-61
2022/03/25 00:32:25;;;;;;;24.53;18.93;;;12.80;99.90;;;;;;1022866;29;20110;-61
2022/03/25 00:32:55;;;;;;;22.40;18.67;;;12.80;99.90;;;;;;1022967;29;20038;-64
2022/03/25 00:33:26;;;;;;;21.93;18.37;;;12.80;99.90;;;;;;1022762;29;20032;-62
2022/03/25 00:33:56;;;;;;;20.63;18.40;;;12.80;99.90;;;;;;1022922;29;20055;-62
2022/03/25 00:34:27;;;;;;;22.50;17.90;;;12.80;99.90;;;;;;1022911;29;20027;-62
2022/03/25 00:34:58;;;;;;;21.30;17.70;;;12.80;99.90;;;;;;1022958;29;20027;-62
2022/03/25 00:35:29;;;;;;;22.33;18.73;;;12.80;99.90;;;;;;1022968;29;20471;-63
2022/03/25 00:36:01;;;;;;;23.83;20.53;;;12.80;99.90;;;;;;1022956;29;20474;-63
2022/03/25 00:36:31;;;;;;;21.38;19.05;;;12.80;99.90;;;;;;1023015;29;20019;-62
2022/03/25 00:37:02;;;;;;;20.97;18.00;;;12.80;99.90;;;;;;1022660;29;20422;-62
2022/03/25 00:37:32;;;;;;;22.60;18.07;;;12.80;99.90;;;;;;1022541;29;20535;-65
2022/03/25 00:38:03;;;;;;;22.83;17.90;;;12.80;99.90;;;;;;1022762;29;20028;-60
2022/03/25 00:38:33;;;;;;;21.33;19.07;;;12.80;99.90;;;;;;1022297;29;20082;-62
2022/03/25 00:39:04;;;;;;;20.63;17.73;;;12.80;99.90;;;;;;1022512;29;20023;-61
2022/03/25 00:39:35;;;;;;;20.70;18.10;;;12.70;99.90;;;;;;1022618;29;20023;-62
2022/03/25 00:40:06;;;;;;;22.37;19.67;;;12.80;99.90;;;;;;1022633;29;20050;-61
2022/03/25 00:40:37;;;;;;;22.08;19.15;;;12.70;99.90;;;;;;1022547;29;20118;-62
2022/03/25 00:41:07;;;;;;;22.87;18.40;;;12.70;99.90;;;;;;1023145;29;20056;-62
2022/03/25 00:41:38;;;;;;;21.37;19.03;;;12.70;99.90;;;;;;1022963;29;20027;-62
2022/03/25 00:42:09;;;;;;;23.23;19.80;;;12.70;99.90;;;;;;1022882;29;20047;-63
2022/03/25 00:42:40;;;;;;;21.05;18.63;;;12.70;99.90;;;;;;1022380;29;20030;-61
2022/03/25 00:43:11;;;;;;;22.80;19.30;;;12.70;99.90;;;;;;1022622;29;20102;-61
2022/03/25 00:43:42;;;;;;;21.20;18.53;;;12.70;99.90;;;;;;1022510;29;20362;-60
2022/03/25 00:44:13;;;;;;;24.05;19.38;;;12.70;99.90;;;;;;1022387;29;20382;-62
2022/03/25 00:44:44;;;;;;;22.40;19.45;;;12.70;99.90;;;;;;1022702;29;20119;-60
2022/03/25 00:45:15;;;;;;;22.93;19.40;;;12.70;99.90;;;;;;1022577;29;20023;-61
2022/03/25 00:45:46;;;;;;;24.13;20.87;;;12.70;99.90;;;;;;1022851;29;20616;-61
2022/03/25 00:46:17;;;;;;;23.92;19.00;;;12.70;99.90;;;;;;1019149;28;20955;-62
2022/03/25 00:46:48;;;;;;;20.83;18.40;;;12.70;99.90;;;;;;1025245;28;20762;-61
2022/03/25 00:47:18;;;;;;;22.00;18.50;;;12.70;99.90;;;;;;1026771;28;20470;-61
2022/03/25 00:47:49;;;;;;;22.97;18.73;;;12.70;99.90;;;;;;1026877;28;20026;-61
2022/03/25 00:48:20;;;;;;;23.17;20.43;;;12.70;99.90;;;;;;1026803;28;20022;-61
2022/03/25 00:48:50;;;;;;;22.97;18.53;;;12.70;99.90;;;;;;1026409;28;20142;-61
2022/03/25 00:49:21;;;;;;;23.17;20.63;;;12.70;99.90;;;;;;1026531;28;20031;-61
2022/03/25 00:49:51;;;;;;;22.53;19.07;;;12.70;99.90;;;;;;1026563;28;20047;-61
2022/03/25 00:50:23;;;;;;;23.17;20.47;;;12.70;99.90;;;;;;1026510;28;20039;-61
2022/03/25 00:50:55;;;;;;;21.10;18.80;;;12.60;99.90;;;;;;1026835;28;20765;-62
2022/03/25 00:51:27;;;;;;;24.58;19.88;;;12.60;99.90;;;;;;1026986;28;20034;-63
2022/03/25 00:51:58;;;;;;;23.52;18.83;;;12.60;99.90;;;;;;1026888;28;20560;-60
2022/03/25 00:52:28;;;;;;;22.45;19.35;;;12.60;99.90;;;;;;1026939;28;20106;-61
2022/03/25 00:52:59;;;;;;;19.10;17.10;;;12.60;99.90;;;;;;1026918;28;20037;-62
2022/03/25 00:53:30;;;;;;;22.73;19.93;;;12.60;99.90;;;;;;1027084;28;20093;-60
2022/03/25 00:54:02;;;;;;;22.75;19.08;;;12.60;99.90;;;;;;1026830;28;20101;-63
2022/03/25 00:54:32;;;;;;;22.05;19.85;;;12.60;99.90;;;;;;1026945;28;20022;-62
2022/03/25 00:55:04;;;;;;;21.03;18.83;;;12.60;99.90;;;;;;1026925;28;20030;-60
2022/03/25 00:55:34;;;;;;;22.60;19.95;;;12.60;99.90;;;;;;1027009;28;20098;-62
2022/03/25 00:56:05;;;;;;;22.10;19.80;;;12.60;99.90;;;;;;1026876;28;20370;-62
2022/03/25 00:56:36;;;;;;;24.17;19.50;;;12.60;99.90;;;;;;1026829;28;20494;-62
2022/03/25 00:57:06;;;;;;;22.43;18.93;;;12.60;99.90;;;;;;1025413;28;20811;-62
2022/03/25 00:57:37;;;;;;;22.93;19.73;;;12.60;99.90;;;;;;1022978;29;20055;-59
2022/03/25 00:58:08;;;;;;;22.03;19.63;;;12.50;99.90;;;;;;1022784;29;20016;-60
2022/03/25 00:58:39;;;;;;;22.15;19.45;;;12.60;99.90;;;;;;1022928;28;20019;-60
2022/03/25 00:59:09;;;;;;;22.93;20.37;;;12.60;99.90;;;;;;1022895;29;20025;-61
2022/03/25 00:59:40;;;;;;;21.23;18.70;;;12.50;99.90;;;;;;1022910;29;20032;-62
2022/03/25 01:00:10;;;;;;;24.13;21.57;;;12.50;99.90;;;;;;1022986;29;20030;-61
2022/03/25 01:00:41;;;;;;;21.50;19.00;;;12.50;99.90;;;;;;1022887;28;20541;-61
2022/03/25 01:01:12;;;;;;;24.27;21.77;;;12.50;99.90;;;;;;1026983;28;20725;-62
2022/03/25 01:01:42;;;;;;;22.57;20.10;;;12.50;99.90;;;;;;1026464;28;20270;-61
2022/03/25 01:02:13;;;;;;;23.53;19.97;;;12.50;99.90;;;;;;1020622;29;20125;-60
2022/03/25 01:02:43;;;;;;;22.07;19.77;;;12.50;99.90;;;;;;1018701;29;20067;-61
2022/03/25 01:03:15;;;;;;;22.10;19.77;;;12.50;99.90;;;;;;1018579;29;20023;-60
2022/03/25 01:03:45;;;;;;;22.73;19.23;;;12.50;99.90;;;;;;1022626;29;20035;-64
2022/03/25 01:04:16;;;;;;;20.73;18.53;;;12.50;99.90;;;;;;1022855;28;20058;-61
2022/03/25 01:04:46;;;;;;;23.53;21.03;;;12.50;99.90;;;;;;1022858;28;20030;-60
2022/03/25 01:05:20;;;;;;;24.70;19.80;;;12.50;99.90;;;;;;1022726;29;20134;-60
2022/03/25 01:05:52;;;;;;;20.13;18.02;;;12.50;99.90;;;;;;1022836;28;20051;-60
2022/03/25 01:06:24;;;;;;;24.23;20.45;;;12.50;99.90;;;;;;1023056;28;20051;-61
2022/03/25 01:06:55;;;;;;;22.42;18.83;;;12.50;99.90;;;;;;1022327;29;20019;-61
2022/03/25 01:07:26;;;;;;;23.83;19.50;;;12.50;99.90;;;;;;1022529;29;20082;-62
2022/03/25 01:07:56;;;;;;;22.00;19.63;;;12.50;99.90;;;;;;1022449;29;20019;-60
2022/03/25 01:08:27;;;;;;;23.17;19.33;;;12.50;99.90;;;;;;1022388;29;20051;-60
2022/03/25 01:08:58;;;;;;;23.90;19.03;;;12.50;99.90;;;;;;1022857;29;20078;-62
2022/03/25 01:09:28;;;;;;;25.27;21.13;;;12.50;99.90;;;;;;1022918;29;20031;-61
2022/03/25 01:09:59;;;;;;;23.00;20.50;;;12.50;99.90;;;;;;1022804;29;20023;-61
2022/03/25 01:10:29;;;;;;;22.87;20.30;;;12.40;99.90;;;;;;1022954;29;20031;-61
2022/03/25 01:11:00;;;;;;;25.50;20.97;;;12.50;99.90;;;;;;1022800;29;20084;-60
2022/03/25 01:11:31;;;;;;;24.17;19.33;;;12.50;99.90;;;;;;1023050;29;20722;-62
2022/03/25 01:12:02;;;;;;;23.33;19.30;;;12.50;99.90;;;;;;1022867;28;20022;-60
2022/03/25 01:12:32;;;;;;;24.40;20.10;;;12.40;99.90;;;;;;1022990;28;20024;-60
2022/03/25 01:13:04;;;;;;;22.83;19.83;;;12.40;99.90;;;;;;1022953;29;20334;-61
2022/03/25 01:13:35;;;;;;;23.65;21.15;;;12.40;99.90;;;;;;1022641;28;20715;-61
2022/03/25 01:14:08;;;;;;;23.50;21.00;;;12.40;99.90;;;;;;1022772;29;20477;-62
2022/03/25 01:14:39;;;;;;;23.77;21.27;;;12.40;99.90;;;;;;1022837;28;20022;-60
2022/03/25 01:15:10;;;;;;;20.23;18.10;;;12.40;99.90;;;;;;1022698;29;20070;-62
2022/03/25 01:15:40;;;;;;;22.77;20.08;;;12.40;99.90;;;;;;1022927;28;20279;-63
2022/03/25 01:16:11;;;;;;;25.77;20.40;;;12.40;99.90;;;;;;1022638;29;20035;-62
2022/03/25 01:16:41;;;;;;;26.27;20.83;;;12.40;99.90;;;;;;1022780;29;20020;-60
2022/03/25 01:17:12;;;;;;;22.67;20.23;;;12.40;99.90;;;;;;1022871;29;20022;-60
2022/03/25 01:17:43;;;;;;;25.20;20.43;;;12.40;99.90;;;;;;1022927;29;20019;-62
2022/03/25 01:18:14;;;;;;;21.43;19.07;;;12.40;99.90;;;;;;1022606;29;20099;-62
2022/03/25 01:18:44;;;;;;;23.65;21.20;;;12.40;99.90;;;;;;1022922;29;20255;-61
2022/03/25 01:19:15;;;;;;;26.10;21.57;;;12.40;99.90;;;;;;1022727;29;20024;-62
2022/03/25 01:19:46;;;;;;;25.13;20.17;;;12.40;99.90;;;;;;1022934;29;20027;-61
2022/03/25 01:20:20;;;;;;;22.48;19.98;;;12.40;99.90;;;;;;1022566;29;20023;-60
2022/03/25 01:20:50;;;;;;;26.08;20.13;;;12.40;99.90;;;;;;1022416;29;20098;-60
2022/03/25 01:21:21;;;;;;;21.27;18.67;;;12.40;99.90;;;;;;1022154;29;20041;-60
2022/03/25 01:21:51;;;;;;;22.40;20.03;;;12.40;99.90;;;;;;1022601;29;20020;-62
2022/03/25 01:22:22;;;;;;;24.20;21.60;;;12.30;99.90;;;;;;1022255;29;20023;-60
2022/03/25 01:22:52;;;;;;;23.97;20.00;;;12.40;99.90;;;;;;1022789;29;20485;-64
2022/03/25 01:23:24;;;;;;;23.77;21.33;;;12.40;99.90;;;;;;1022641;29;20634;-62
2022/03/25 01:23:56;;;;;;;21.85;19.63;;;12.40;99.90;;;;;;1022785;28;20057;-62
2022/03/25 01:24:27;;;;;;;21.25;18.95;;;12.40;99.90;;;;;;1022467;28;20406;-62
2022/03/25 01:24:58;;;;;;;24.25;19.92;;;12.40;99.90;;;;;;1022835;28;20023;-61
2022/03/25 01:25:29;;;;;;;24.47;21.80;;;12.30;99.90;;;;;;1022758;28;20035;-61
2022/03/25 01:25:59;;;;;;;23.43;19.93;;;12.30;99.90;;;;;;1022811;28;20023;-62
2022/03/25 01:26:30;;;;;;;22.93;20.53;;;12.30;99.90;;;;;;1022811;28;20066;-62
2022/03/25 01:27:01;;;;;;;21.40;19.20;;;12.30;99.90;;;;;;1022872;28;20022;-62
2022/03/25 01:27:32;;;;;;;23.10;20.50;;;12.30;99.90;;;;;;1022833;28;20019;-61
2022/03/25 01:28:02;;;;;;;22.10;19.80;;;12.30;99.90;;;;;;1022764;28;20031;-63
2022/03/25 01:28:34;;;;;;;23.27;19.53;;;12.30;99.90;;;;;;1026388;28;20063;-62
2022/03/25 01:29:05;;;;;;;23.70;21.27;;;12.30;99.90;;;;;;1026380;28;20077;-62
2022/03/25 01:29:35;;;;;;;25.27;20.53;;;12.30;99.90;;;;;;1026431;28;20026;-62
2022/03/25 01:30:07;;;;;;;24.40;20.67;;;12.30;99.90;;;;;;1026147;28;20019;-61
2022/03/25 01:30:37;;;;;;;24.48;20.58;;;12.30;99.90;;;;;;1022824;28;20024;-62
2022/03/25 01:31:09;;;;;;;26.07;21.90;;;12.30;99.90;;;;;;1022466;28;20022;-62
2022/03/25 01:31:39;;;;;;;24.98;20.02;;;12.30;99.90;;;;;;1022440;29;20015;-61
2022/03/25 01:32:10;;;;;;;23.37;20.90;;;12.30;99.90;;;;;;1022376;29;20020;-62
2022/03/25 01:32:41;;;;;;;23.07;19.90;;;12.30;99.90;;;;;;1022212;29;20019;-61
2022/03/25 01:33:11;;;;;;;23.30;20.80;;;12.30;99.90;;;;;;1018794;29;20691;-61
2022/03/25 01:33:42;;;;;;;24.57;20.73;;;12.30;99.90;;;;;;1018949;29;20054;-63
2022/03/25 01:34:12;;;;;;;23.87;21.23;;;12.30;99.90;;;;;;1018562;29;20106;-63
2022/03/25 01:34:43;;;;;;;22.53;20.10;;;12.20;99.90;;;;;;1018906;29;20024;-62
2022/03/25 01:35:14;;;;;;;23.30;19.83;;;12.20;99.90;;;;;;1018522;29;20020;-61
2022/03/25 01:35:45;;;;;;;24.50;21.75;;;12.20;99.90;;;;;;1018929;29;20020;-61
2022/03/25 01:36:16;;;;;;;24.30;20.23;;;12.20;99.90;;;;;;1018219;29;20035;-61
2022/03/25 01:36:46;;;;;;;21.90;19.50;;;12.20;99.90;;;;;;1018364;29;20059;-60
2022/03/25 01:37:17;;;;;;;26.57;21.00;;;12.20;99.90;;;;;;1018383;29;20491;-60
2022/03/25 01:37:48;;;;;;;24.42;21.73;;;12.20;99.90;;;;;;1018387;29;20883;-61
2022/03/25 01:38:20;;;;;;;22.80;20.03;;;12.20;99.90;;;;;;1021828;28;20022;-61
2022/03/25 01:38:51;;;;;;;24.13;21.10;;;12.20;99.90;;;;;;1022216;29;20386;-61
2022/03/25 01:39:21;;;;;;;22.33;19.97;;;12.20;99.90;;;;;;1022422;29;20561;-60
2022/03/25 01:39:52;;;;;;;26.30;22.53;;;12.20;99.90;;;;;;1018628;29;20039;-60
2022/03/25 01:40:22;;;;;;;22.27;19.93;;;12.20;99.90;;;;;;1018405;29;20027;-61
2022/03/25 01:40:53;;;;;;;23.40;19.80;;;12.10;99.90;;;;;;1018325;29;20023;-61
2022/03/25 01:41:24;;;;;;;24.77;22.37;;;12.10;99.90;;;;;;1018563;29;20078;-61
2022/03/25 01:41:55;;;;;;;25.27;21.47;;;12.10;99.90;;;;;;1018698;29;20062;-62
2022/03/25 01:42:32;;;;;;;24.50;21.92;;;12.10;99.90;;;;;;1018159;28;20033;-61
2022/03/25 01:43:06;;;;;;;24.50;21.00;;;12.10;99.90;;;;;;1026330;28;20018;-62
2022/03/25 01:43:37;;;;;;;28.17;22.20;;;12.10;99.90;;;;;;1026603;28;20022;-60
2022/03/25 01:44:11;;;;;;;23.73;21.33;;;12.10;99.90;;;;;;1026539;28;20034;-62
2022/03/25 01:44:42;;;;;;;24.45;21.85;;;12.10;99.90;;;;;;1026665;28;20019;-62
2022/03/25 01:45:12;;;;;;;26.03;21.50;;;12.10;99.90;;;;;;1026769;28;20027;-62
2022/03/25 01:45:43;;;;;;;25.07;20.63;;;12.10;99.90;;;;;;1026205;28;20125;-63
2022/03/25 01:46:15;;;;;;;23.70;20.57;;;12.10;99.90;;;;;;1026393;28;20809;-62
2022/03/25 01:46:45;;;;;;;26.10;20.38;;;12.10;99.90;;;;;;1026355;28;20426;-63
2022/03/25 01:47:16;;;;;;;26.33;21.90;;;12.10;99.90;;;;;;1026402;28;20552;-61
2022/03/25 01:47:46;;;;;;;22.93;20.53;;;12.10;99.90;;;;;;1026692;28;20015;-61
2022/03/25 01:48:17;;;;;;;24.60;22.03;;;12.10;99.90;;;;;;1026633;28;20029;-62
2022/03/25 01:48:49;;;;;;;24.77;20.90;;;12.10;99.90;;;;;;1026690;28;20023;-61
2022/03/25 01:49:20;;;;;;;23.20;20.70;;;12.10;99.90;;;;;;1026754;28;20031;-62
2022/03/25 01:49:50;;;;;;;24.90;21.27;;;12.10;99.90;;;;;;1026560;28;20015;-63
2022/03/25 01:50:21;;;;;;;23.13;20.57;;;12.10;99.90;;;;;;1026732;28;20045;-61
2022/03/25 01:50:52;;;;;;;24.23;21.73;;;12.10;99.90;;;;;;1026734;28;20018;-61
2022/03/25 01:51:34;;;;;;;24.10;20.80;;;12.10;99.90;;;;;;1026809;28;20031;-62
2022/03/25 01:52:04;;;;;;;24.15;21.48;;;12.10;99.90;;;;;;1026680;28;20023;-62
2022/03/25 01:52:35;;;;;;;26.93;21.97;;;12.10;99.90;;;;;;1026701;28;20027;-62
2022/03/25 01:53:15;;;;;;;23.53;19.90;;;12.10;99.90;;;;;;1026623;28;20030;-62
2022/03/25 01:53:47;;;;;;;27.90;22.35;;;12.10;99.90;;;;;;1022744;29;20028;-62
2022/03/25 01:54:24;;;;;;;24.25;21.60;;;12.10;99.90;;;;;;1022353;29;20023;-62
2022/03/25 01:55:12;;;;;;;25.13;21.75;;;12.10;99.90;;;;;;1022191;29;20027;-62
2022/03/25 01:55:52;;;;;;;;;;;12.10;99.90;;;;;;1022803;29;20027;-62
2022/03/25 01:56:24;;;;;;;27.63;21.48;;;12.00;99.90;;;;;;1022894;28;20302;-61
2022/03/25 01:56:57;;;;;;;28.00;24.17;;;12.00;99.90;;;;;;1022463;29;20796;-62
2022/03/25 01:57:28;;;;;;;25.90;23.25;;;12.00;99.90;;;;;;1018668;29;20570;-61
2022/03/25 01:57:59;;;;;;;26.10;22.63;;;12.00;99.90;;;;;;1018752;29;20483;-61
2022/03/25 01:58:32;;;;;;;28.65;25.65;;;12.00;99.90;;;;;;1018472;29;20088;-62
2022/03/25 01:59:04;;;;;;;26.83;21.30;;;12.00;99.90;;;;;;1018370;29;20742;-62
2022/03/25 01:59:35;;;;;;;26.65;21.95;;;12.00;99.90;;;;;;1018313;29;20038;-61
2022/03/25 02:00:06;;;;;;;23.27;20.67;;;12.00;99.90;;;;;;1018416;29;20134;-62
2022/03/25 02:00:37;;;;;;;25.80;23.10;;;12.00;99.90;;;;;;1018734;29;20027;-61
2022/03/25 02:01:08;;;;;;;26.63;21.90;;;12.00;99.90;;;;;;1018764;29;20498;-62
2022/03/25 02:01:40;;;;;;;26.65;23.20;;;12.00;99.90;;;;;;1018661;29;20085;-61
2022/03/25 02:02:11;;;;;;;24.80;21.38;;;12.00;99.90;;;;;;1023768;28;20027;-62
2022/03/25 02:02:43;;;;;;;25.43;22.63;;;12.00;99.90;;;;;;1026210;28;20034;-61
2022/03/25 02:03:16;;;;;;;23.73;21.10;;;12.00;99.90;;;;;;1026275;28;20265;-62
2022/03/25 02:03:47;;;;;;;25.60;22.88;;;12.00;99.90;;;;;;1022264;29;20094;-61
2022/03/25 02:04:17;;;;;;;27.17;24.50;;;12.00;99.90;;;;;;1022233;29;20439;-63
2022/03/25 02:04:48;;;;;;;28.03;24.47;;;12.00;99.90;;;;;;1022139;29;20598;-61
2022/03/25 02:05:19;;;;;;;26.27;22.33;;;12.00;99.90;;;;;;1022560;29;20019;-62
2022/03/25 02:05:50;;;;;;;26.47;22.80;;;12.00;99.90;;;;;;1022694;28;20031;-61
2022/03/25 02:06:20;;;;;;;25.63;22.80;;;12.00;99.90;;;;;;1022655;29;20106;-62
2022/03/25 02:06:52;;;;;;;25.47;22.77;;;12.00;99.90;;;;;;1022611;29;20162;-61
2022/03/25 02:07:23;;;;;;;27.38;24.45;;;12.00;99.90;;;;;;1022743;29;20027;-61
2022/03/25 02:07:53;;;;;;;29.37;26.27;;;11.90;99.90;;;;;;1022495;28;20015;-61
2022/03/25 02:08:24;;;;;;;28.47;25.40;;;11.90;99.90;;;;;;1022805;29;20028;-61
2022/03/25 02:08:54;;;;;;;28.40;25.47;;;11.90;99.90;;;;;;1022309;29;20023;-61
2022/03/25 02:09:26;;;;;;;28.70;25.80;;;11.90;99.90;;;;;;1022784;29;20696;-62
2022/03/25 02:09:57;;;;;;;26.48;23.23;;;11.90;99.90;;;;;;1021943;29;20019;-61
2022/03/25 02:10:27;;;;;;;29.17;26.07;;;11.90;99.90;;;;;;1021937;29;20027;-61
2022/03/25 02:10:58;;;;;;;25.73;23.13;;;11.90;99.90;;;;;;1018244;29;20818;-62
2022/03/25 02:11:30;;;;;;;30.35;26.17;;;11.90;99.90;;;;;;1018532;29;20111;-61
2022/03/25 02:12:00;;;;;;;26.67;23.10;;;11.90;99.90;;;;;;1018649;29;20154;-62
2022/03/25 02:12:35;;;;;;;26.33;22.83;;;11.90;99.90;;;;;;1018727;29;20091;-61
2022/03/25 02:13:08;;;;;;;27.23;23.92;;;11.90;99.90;;;;;;1018650;29;20015;-62
2022/03/25 02:13:39;;;;;;;25.90;23.20;;;11.90;99.90;;;;;;1018729;29;20040;-62
2022/03/25 02:14:11;;;;;;;27.73;24.73;;;11.90;99.90;;;;;;1018691;29;20023;-62
2022/03/25 02:14:41;;;;;;;33.35;29.95;;;11.90;99.90;;;;;;1018690;29;20026;-62
2022/03/25 02:15:12;;;;;;;29.67;26.57;;;11.90;99.90;;;;;;1022237;29;20015;-61
2022/03/25 02:15:47;;;;;;;27.23;21.90;;;11.90;99.90;;;;;;1022412;29;20042;-61
2022/03/25 02:16:18;;;;;;;25.80;23.05;;;11.90;99.90;;;;;;1022182;29;20668;-62
2022/03/25 02:16:49;;;;;;;27.13;24.33;;;11.90;99.90;;;;;;1021648;29;20675;-62
2022/03/25 02:17:20;;;;;;;26.38;23.58;;;11.80;99.90;;;;;;1018700;29;20087;-63
2022/03/25 02:17:51;;;;;;;28.67;25.37;;;11.80;99.90;;;;;;1018809;29;20036;-60
2022/03/25 02:18:23;;;;;;;29.33;26.03;;;11.80;99.90;;;;;;1018594;29;20519;-62
2022/03/25 02:18:53;;;;;;;28.27;24.52;;;11.80;99.90;;;;;;1018568;29;20020;-61
2022/03/25 02:19:26;;;;;;;27.67;24.23;;;11.80;99.90;;;;;;1018741;29;20023;-61
2022/03/25 02:19:57;;;;;;;28.63;24.23;;;11.80;99.90;;;;;;1018623;29;20015;-63
2022/03/25 02:20:28;;;;;;;27.23;24.43;;;11.80;99.90;;;;;;1024011;28;20071;-60
2022/03/25 02:20:59;;;;;;;28.67;24.63;;;11.80;99.90;;;;;;1021558;29;20028;-61
2022/03/25 02:21:31;;;;;;;30.15;27.13;;;11.80;99.90;;;;;;1018334;29;20024;-62
2022/03/25 02:22:02;;;;;;;28.08;25.17;;;11.80;99.90;;;;;;1018171;29;20026;-61
2022/03/25 02:22:34;;;;;;;30.50;27.13;;;11.80;99.90;;;;;;1018276;29;20028;-60
2022/03/25 02:23:06;;;;;;;31.00;25.20;;;11.80;99.90;;;;;;1022051;29;20106;-59
2022/03/25 02:23:37;;;;;;;28.58;25.67;;;11.80;99.90;;;;;;1022597;29;20074;-60
2022/03/25 02:24:09;;;;;;;27.57;24.67;;;11.80;99.90;;;;;;1022567;29;20117;-60
2022/03/25 02:24:39;;;;;;;28.30;25.23;;;11.80;99.90;;;;;;1022312;28;20122;-61
2022/03/25 02:25:13;;;;;;;28.13;23.50;;;11.80;99.90;;;;;;1026331;28;20019;-60
2022/03/25 02:25:50;;;;;;;27.23;24.10;;;11.80;99.90;;;;;;1026176;28;20029;-61
2022/03/25 02:26:22;;;;;;;29.38;24.50;;;11.80;99.90;;;;;;1026193;28;20010;-62
2022/03/25 02:26:52;;;;;;;28.38;25.48;;;11.80;99.90;;;;;;1024894;28;20233;-61
2022/03/25 02:27:24;;;;;;;27.77;24.33;;;11.80;99.90;;;;;;1022665;28;20843;-61
2022/03/25 02:27:55;;;;;;;30.67;26.13;;;11.80;99.90;;;;;;1022430;28;20790;-63
2022/03/25 02:28:26;;;;;;;28.75;25.67;;;11.80;99.90;;;;;;1022774;28;20016;-60
2022/03/25 02:28:57;;;;;;;30.85;27.33;;;11.80;99.90;;;;;;1022342;28;20041;-60
2022/03/25 02:29:28;;;;;;;27.50;24.37;;;11.80;99.90;;;;;;1022571;28;20169;-61
2022/03/25 02:29:58;;;;;;;29.47;26.33;;;11.80;99.90;;;;;;1022386;29;20167;-59
2022/03/25 02:30:29;;;;;;;30.87;25.60;;;11.70;99.90;;;;;;1022781;29;20011;-59
2022/03/25 02:31:00;;;;;;;26.70;23.58;;;11.80;99.90;;;;;;1022237;29;20054;-63
2022/03/25 02:31:30;;;;;;;28.67;25.57;;;11.80;99.90;;;;;;1022830;28;20102;-62
2022/03/25 02:32:01;;;;;;;29.17;25.83;;;11.80;99.90;;;;;;1022526;28;20016;-62
2022/03/25 02:32:32;;;;;;;26.73;23.83;;;11.70;99.90;;;;;;1022773;28;20019;-61
2022/03/25 02:33:04;;;;;;;28.23;25.33;;;11.70;99.90;;;;;;1022625;28;20011;-61
2022/03/25 02:33:34;;;;;;;29.23;26.08;;;11.70;99.90;;;;;;1022602;28;20011;-61
2022/03/25 02:34:08;;;;;;;27.20;24.30;;;11.70;99.90;;;;;;1022550;28;20150;-61
2022/03/25 02:34:38;;;;;;;28.67;25.67;;;11.70;99.90;;;;;;1022182;29;20417;-61
2022/03/25 02:35:10;;;;;;;27.97;24.97;;;11.70;99.90;;;;;;1022353;29;20738;-61
2022/03/25 02:35:49;;;;;;;28.95;25.85;;;11.70;99.90;;;;;;1022273;29;20348;-61
2022/03/25 02:36:20;;;;;;;28.17;25.13;;;11.70;99.90;;;;;;1022407;29;20495;-61
2022/03/25 02:36:51;;;;;;;28.67;24.80;;;11.70;99.90;;;;;;1022795;28;20447;-62
2022/03/25 02:37:24;;;;;;;29.57;26.43;;;11.70;99.90;;;;;;1022476;28;20011;-62
2022/03/25 02:37:55;;;;;;;29.63;26.58;;;11.70;99.90;;;;;;1022400;28;20070;-61
2022/03/25 02:38:26;;;;;;;31.03;27.83;;;11.70;99.90;;;;;;1019906;28;20031;-63